sensor_id;sensor_type;location;lat;lon;timestamp;temperature;humidity
70366;DHT22;57787;48.216;12.396;2023-02-14T00:00:50;1.40;89.60
70366;DHT22;57787;48.216;12.396;2023-02-14T00:03:18;1.40;89.60
70366;DHT22;57787;48.216;12.396;2023-02-14T00:05:46;1.40;89.60
70366;DHT22;57787;48.216;12.396;2023-02-14T00:08:14;1.40;89.70
70366;DHT22;57787;48.216;12.396;2023-02-14T00:10:41;1.40;89.80
70366;DHT22;57787;48.216;12.396;2023-02-14T00:13:09;1.40;89.90
70366;DHT22;57787;48.216;12.396;2023-02-14T00:15:39;1.40;89.80
70366;DHT22;57787;48.216;12.396;2023-02-14T00:18:07;1.40;89.70
70366;DHT22;57787;48.216;12.396;2023-02-14T00:20:35;1.40;89.80
70366;DHT22;57787;48.216;12.396;2023-02-14T00:23:03;1.40;89.70
70366;DHT22;57787;48.216;12.396;2023-02-14T00:25:32;1.40;89.70
70366;DHT22;57787;48.216;12.396;2023-02-14T00:27:59;1.40;89.80
70366;DHT22;57787;48.216;12.396;2023-02-14T00:30:27;1.40;89.80
70366;DHT22;57787;48.216;12.396;2023-02-14T00:32:54;1.40;89.80
70366;DHT22;57787;48.216;12.396;2023-02-14T00:35:22;1.40;89.80
70366;DHT22;57787;48.216;12.396;2023-02-14T00:37:49;1.40;89.80
70366;DHT22;57787;48.216;12.396;2023-02-14T00:40:17;1.40;89.70
70366;DHT22;57787;48.216;12.396;2023-02-14T00:42:44;1.40;89.70
70366;DHT22;57787;48.216;12.396;2023-02-14T00:45:13;1.40;89.60
70366;DHT22;57787;48.216;12.396;2023-02-14T00:47:41;1.30;89.80
70366;DHT22;57787;48.216;12.396;2023-02-14T00:50:08;1.30;90.00
70366;DHT22;57787;48.216;12.396;2023-02-14T00:52:36;1.40;90.10
70366;DHT22;57787;48.216;12.396;2023-02-14T00:55:03;1.40;90.00
70366;DHT22;57787;48.216;12.396;2023-02-14T00:57:31;1.40;90.00
70366;DHT22;57787;48.216;12.396;2023-02-14T00:59:59;1.30;89.80
70366;DHT22;57787;48.216;12.396;2023-02-14T01:02:26;1.30;89.90
70366;DHT22;57787;48.216;12.396;2023-02-14T01:04:54;1.30;90.00
70366;DHT22;57787;48.216;12.396;2023-02-14T01:07:22;1.30;90.10
70366;DHT22;57787;48.216;12.396;2023-02-14T01:09:50;1.30;90.00
70366;DHT22;57787;48.216;12.396;2023-02-14T01:12:18;1.30;90.10
70366;DHT22;57787;48.216;12.396;2023-02-14T01:14:45;1.30;90.10
70366;DHT22;57787;48.216;12.396;2023-02-14T01:17:13;1.30;90.10
70366;DHT22;57787;48.216;12.396;2023-02-14T01:19:42;1.30;90.00
70366;DHT22;57787;48.216;12.396;2023-02-14T01:22:09;1.30;89.80
70366;DHT22;57787;48.216;12.396;2023-02-14T01:24:37;1.20;89.80
70366;DHT22;57787;48.216;12.396;2023-02-14T01:27:04;1.20;89.80
70366;DHT22;57787;48.216;12.396;2023-02-14T01:29:32;1.20;89.90
70366;DHT22;57787;48.216;12.396;2023-02-14T01:31:59;1.20;89.90
70366;DHT22;57787;48.216;12.396;2023-02-14T01:34:44;1.20;89.90
70366;DHT22;57787;48.216;12.396;2023-02-14T01:37:14;1.20;89.80
70366;DHT22;57787;48.216;12.396;2023-02-14T01:39:43;1.20;89.80
70366;DHT22;57787;48.216;12.396;2023-02-14T01:42:10;1.10;89.80
70366;DHT22;57787;48.216;12.396;2023-02-14T01:47:07;1.10;89.60
70366;DHT22;57787;48.216;12.396;2023-02-14T01:49:42;1.00;89.50
70366;DHT22;57787;48.216;12.396;2023-02-14T01:52:12;1.10;89.80
70366;DHT22;57787;48.216;12.396;2023-02-14T01:54:42;1.10;89.90
70366;DHT22;57787;48.216;12.396;2023-02-14T01:57:11;1.10;89.90
70366;DHT22;57787;48.216;12.396;2023-02-14T01:59:41;1.00;89.70
70366;DHT22;57787;48.216;12.396;2023-02-14T02:02:10;1.00;89.90
70366;DHT22;57787;48.216;12.396;2023-02-14T02:04:38;1.00;89.70
70366;DHT22;57787;48.216;12.396;2023-02-14T02:07:09;1.10;89.80
70366;DHT22;57787;48.216;12.396;2023-02-14T02:09:54;1.00;89.80
70366;DHT22;57787;48.216;12.396;2023-02-14T02:12:23;1.00;89.90
70366;DHT22;57787;48.216;12.396;2023-02-14T02:14:52;1.00;89.90
70366;DHT22;57787;48.216;12.396;2023-02-14T02:28:12;1.00;89.80
70366;DHT22;57787;48.216;12.396;2023-02-14T02:31:00;1.00;89.90
70366;DHT22;57787;48.216;12.396;2023-02-14T02:38:58;0.90;89.80
70366;DHT22;57787;48.216;12.396;2023-02-14T02:41:31;0.90;89.60
70366;DHT22;57787;48.216;12.396;2023-02-14T02:46:45;0.90;89.50
70366;DHT22;57787;48.216;12.396;2023-02-14T02:49:35;0.90;89.70
70366;DHT22;57787;48.216;12.396;2023-02-14T02:57:50;0.90;89.70
70366;DHT22;57787;48.216;12.396;2023-02-14T03:00:20;0.80;89.50
70366;DHT22;57787;48.216;12.396;2023-02-14T03:02:50;0.80;89.60
70366;DHT22;57787;48.216;12.396;2023-02-14T03:05:37;0.80;89.70
70366;DHT22;57787;48.216;12.396;2023-02-14T03:08:05;0.90;89.80
70366;DHT22;57787;48.216;12.396;2023-02-14T03:10:34;0.80;89.70
70366;DHT22;57787;48.216;12.396;2023-02-14T03:21:29;0.80;89.80
70366;DHT22;57787;48.216;12.396;2023-02-14T03:29:22;0.80;90.00
70366;DHT22;57787;48.216;12.396;2023-02-14T03:32:01;0.80;90.00
70366;DHT22;57787;48.216;12.396;2023-02-14T03:35:08;0.80;89.90
70366;DHT22;57787;48.216;12.396;2023-02-14T03:37:35;0.80;89.90
70366;DHT22;57787;48.216;12.396;2023-02-14T03:40:12;0.80;89.90
70366;DHT22;57787;48.216;12.396;2023-02-14T03:42:49;0.80;89.90
70366;DHT22;57787;48.216;12.396;2023-02-14T03:45:29;0.80;89.70
70366;DHT22;57787;48.216;12.396;2023-02-14T03:48:02;0.80;89.80
70366;DHT22;57787;48.216;12.396;2023-02-14T03:50:36;0.80;89.90
70366;DHT22;57787;48.216;12.396;2023-02-14T03:53:07;0.80;89.90
70366;DHT22;57787;48.216;12.396;2023-02-14T03:55:40;0.80;89.90
70366;DHT22;57787;48.216;12.396;2023-02-14T03:58:13;0.80;89.90
70366;DHT22;57787;48.216;12.396;2023-02-14T04:00:43;0.80;90.10
70366;DHT22;57787;48.216;12.396;2023-02-14T04:03:13;0.80;90.00
70366;DHT22;57787;48.216;12.396;2023-02-14T04:05:41;0.80;90.00
70366;DHT22;57787;48.216;12.396;2023-02-14T04:08:10;0.80;90.10
70366;DHT22;57787;48.216;12.396;2023-02-14T04:10:38;0.80;89.90
70366;DHT22;57787;48.216;12.396;2023-02-14T04:13:08;0.80;89.90
70366;DHT22;57787;48.216;12.396;2023-02-14T04:15:35;0.70;89.90
70366;DHT22;57787;48.216;12.396;2023-02-14T04:18:03;0.70;89.80
70366;DHT22;57787;48.216;12.396;2023-02-14T04:20:50;0.70;89.70
70366;DHT22;57787;48.216;12.396;2023-02-14T04:23:17;0.70;89.70
70366;DHT22;57787;48.216;12.396;2023-02-14T04:25:45;0.70;89.60
70366;DHT22;57787;48.216;12.396;2023-02-14T04:28:12;0.70;89.50
70366;DHT22;57787;48.216;12.396;2023-02-14T04:30:40;0.70;89.50
70366;DHT22;57787;48.216;12.396;2023-02-14T04:33:08;0.70;89.80
70366;DHT22;57787;48.216;12.396;2023-02-14T04:35:36;0.60;89.50
70366;DHT22;57787;48.216;12.396;2023-02-14T04:38:04;0.60;89.40
70366;DHT22;57787;48.216;12.396;2023-02-14T04:40:31;0.60;89.40
70366;DHT22;57787;48.216;12.396;2023-02-14T04:42:59;0.60;89.60
70366;DHT22;57787;48.216;12.396;2023-02-14T04:45:32;0.60;89.60
70366;DHT22;57787;48.216;12.396;2023-02-14T04:48:01;0.60;89.60
70366;DHT22;57787;48.216;12.396;2023-02-14T04:50:28;0.60;89.70
70366;DHT22;57787;48.216;12.396;2023-02-14T04:52:56;0.60;89.70
70366;DHT22;57787;48.216;12.396;2023-02-14T04:55:23;0.60;89.50
70366;DHT22;57787;48.216;12.396;2023-02-14T04:57:51;0.60;89.60
70366;DHT22;57787;48.216;12.396;2023-02-14T05:00:18;0.60;89.60
70366;DHT22;57787;48.216;12.396;2023-02-14T05:02:47;0.60;89.40
70366;DHT22;57787;48.216;12.396;2023-02-14T05:05:14;0.60;89.50
70366;DHT22;57787;48.216;12.396;2023-02-14T05:07:42;0.60;89.60
70366;DHT22;57787;48.216;12.396;2023-02-14T05:10:14;0.60;89.60
70366;DHT22;57787;48.216;12.396;2023-02-14T05:12:42;0.60;89.40
70366;DHT22;57787;48.216;12.396;2023-02-14T05:15:09;0.60;89.40
70366;DHT22;57787;48.216;12.396;2023-02-14T05:17:37;0.60;89.40
70366;DHT22;57787;48.216;12.396;2023-02-14T05:20:04;0.50;89.40
70366;DHT22;57787;48.216;12.396;2023-02-14T05:22:32;0.60;89.40
70366;DHT22;57787;48.216;12.396;2023-02-14T05:25:00;0.50;89.30
70366;DHT22;57787;48.216;12.396;2023-02-14T05:27:27;0.50;89.30
70366;DHT22;57787;48.216;12.396;2023-02-14T05:29:55;0.50;89.00
70366;DHT22;57787;48.216;12.396;2023-02-14T05:32:23;0.40;89.10
70366;DHT22;57787;48.216;12.396;2023-02-14T05:34:50;0.50;89.10
70366;DHT22;57787;48.216;12.396;2023-02-14T05:37:18;0.40;89.20
70366;DHT22;57787;48.216;12.396;2023-02-14T05:39:45;0.40;89.30
70366;DHT22;57787;48.216;12.396;2023-02-14T05:42:13;0.40;89.10
70366;DHT22;57787;48.216;12.396;2023-02-14T05:44:41;0.40;89.10
70366;DHT22;57787;48.216;12.396;2023-02-14T05:47:08;0.40;89.30
70366;DHT22;57787;48.216;12.396;2023-02-14T05:49:39;0.40;89.40
70366;DHT22;57787;48.216;12.396;2023-02-14T05:52:06;0.30;89.50
70366;DHT22;57787;48.216;12.396;2023-02-14T05:54:34;0.30;89.50
70366;DHT22;57787;48.216;12.396;2023-02-14T05:57:01;0.40;89.60
70366;DHT22;57787;48.216;12.396;2023-02-14T05:59:29;0.30;89.70
70366;DHT22;57787;48.216;12.396;2023-02-14T06:01:56;0.40;89.70
70366;DHT22;57787;48.216;12.396;2023-02-14T06:04:25;0.30;89.70
70366;DHT22;57787;48.216;12.396;2023-02-14T06:06:53;0.30;89.70
70366;DHT22;57787;48.216;12.396;2023-02-14T06:09:21;0.30;89.60
70366;DHT22;57787;48.216;12.396;2023-02-14T06:11:48;0.30;89.50
70366;DHT22;57787;48.216;12.396;2023-02-14T06:14:16;0.30;89.50
70366;DHT22;57787;48.216;12.396;2023-02-14T06:16:44;0.30;89.50
70366;DHT22;57787;48.216;12.396;2023-02-14T06:19:14;0.30;89.60
70366;DHT22;57787;48.216;12.396;2023-02-14T06:21:42;0.30;89.70
70366;DHT22;57787;48.216;12.396;2023-02-14T06:24:10;0.30;89.70
70366;DHT22;57787;48.216;12.396;2023-02-14T06:26:37;0.30;89.70
70366;DHT22;57787;48.216;12.396;2023-02-14T06:29:05;0.30;89.60
70366;DHT22;57787;48.216;12.396;2023-02-14T06:31:33;0.30;89.40
70366;DHT22;57787;48.216;12.396;2023-02-14T06:34:00;0.30;89.50
70366;DHT22;57787;48.216;12.396;2023-02-14T06:36:28;0.30;89.40
70366;DHT22;57787;48.216;12.396;2023-02-14T06:38:56;0.30;89.50
70366;DHT22;57787;48.216;12.396;2023-02-14T06:41:24;0.30;89.50
70366;DHT22;57787;48.216;12.396;2023-02-14T06:43:52;0.30;89.50
70366;DHT22;57787;48.216;12.396;2023-02-14T06:46:20;0.30;89.40
70366;DHT22;57787;48.216;12.396;2023-02-14T06:48:48;0.20;89.40
70366;DHT22;57787;48.216;12.396;2023-02-14T06:51:15;0.30;89.50
70366;DHT22;57787;48.216;12.396;2023-02-14T06:53:43;0.20;89.60
70366;DHT22;57787;48.216;12.396;2023-02-14T06:56:11;0.30;89.70
70366;DHT22;57787;48.216;12.396;2023-02-14T06:58:38;0.30;89.80
70366;DHT22;57787;48.216;12.396;2023-02-14T07:01:05;0.30;89.60
70366;DHT22;57787;48.216;12.396;2023-02-14T07:03:33;0.30;89.60
70366;DHT22;57787;48.216;12.396;2023-02-14T07:06:00;0.30;89.70
70366;DHT22;57787;48.216;12.396;2023-02-14T07:08:31;0.30;89.70
70366;DHT22;57787;48.216;12.396;2023-02-14T07:11:01;0.30;89.40
70366;DHT22;57787;48.216;12.396;2023-02-14T07:13:29;0.30;89.40
70366;DHT22;57787;48.216;12.396;2023-02-14T07:15:56;0.30;89.60
70366;DHT22;57787;48.216;12.396;2023-02-14T07:18:24;0.30;89.60
70366;DHT22;57787;48.216;12.396;2023-02-14T07:20:55;0.30;89.30
70366;DHT22;57787;48.216;12.396;2023-02-14T07:23:22;0.40;89.20
70366;DHT22;57787;48.216;12.396;2023-02-14T07:25:50;0.40;89.20
70366;DHT22;57787;48.216;12.396;2023-02-14T07:28:18;0.40;89.30
70366;DHT22;57787;48.216;12.396;2023-02-14T07:30:45;0.40;89.10
70366;DHT22;57787;48.216;12.396;2023-02-14T07:33:13;0.40;89.30
70366;DHT22;57787;48.216;12.396;2023-02-14T07:35:41;0.40;89.00
70366;DHT22;57787;48.216;12.396;2023-02-14T07:38:09;0.40;89.00
70366;DHT22;57787;48.216;12.396;2023-02-14T07:40:36;0.50;89.20
70366;DHT22;57787;48.216;12.396;2023-02-14T07:43:04;0.50;89.00
70366;DHT22;57787;48.216;12.396;2023-02-14T07:45:32;0.50;89.10
70366;DHT22;57787;48.216;12.396;2023-02-14T07:47:59;0.50;89.10
70366;DHT22;57787;48.216;12.396;2023-02-14T07:50:31;0.60;89.00
70366;DHT22;57787;48.216;12.396;2023-02-14T07:52:59;0.60;88.80
70366;DHT22;57787;48.216;12.396;2023-02-14T07:55:27;0.60;88.20
70366;DHT22;57787;48.216;12.396;2023-02-14T07:57:56;0.60;88.30
70366;DHT22;57787;48.216;12.396;2023-02-14T08:00:24;0.60;88.40
70366;DHT22;57787;48.216;12.396;2023-02-14T08:02:52;0.70;88.60
70366;DHT22;57787;48.216;12.396;2023-02-14T08:05:19;0.70;88.20
70366;DHT22;57787;48.216;12.396;2023-02-14T08:07:47;0.70;88.40
70366;DHT22;57787;48.216;12.396;2023-02-14T08:10:14;0.70;88.20
70366;DHT22;57787;48.216;12.396;2023-02-14T08:12:42;0.70;88.40
70366;DHT22;57787;48.216;12.396;2023-02-14T08:15:25;0.80;88.10
70366;DHT22;57787;48.216;12.396;2023-02-14T08:18:11;0.80;87.90
70366;DHT22;57787;48.216;12.396;2023-02-14T08:20:39;0.80;88.10
70366;DHT22;57787;48.216;12.396;2023-02-14T08:23:07;0.80;87.60
70366;DHT22;57787;48.216;12.396;2023-02-14T08:25:34;0.80;87.70
70366;DHT22;57787;48.216;12.396;2023-02-14T08:28:02;0.90;87.80
70366;DHT22;57787;48.216;12.396;2023-02-14T08:30:30;0.90;87.80
70366;DHT22;57787;48.216;12.396;2023-02-14T08:32:57;0.90;87.60
70366;DHT22;57787;48.216;12.396;2023-02-14T08:35:25;0.90;87.20
70366;DHT22;57787;48.216;12.396;2023-02-14T08:37:52;1.00;87.40
70366;DHT22;57787;48.216;12.396;2023-02-14T08:40:20;1.00;86.70
70366;DHT22;57787;48.216;12.396;2023-02-14T08:42:48;1.00;86.50
70366;DHT22;57787;48.216;12.396;2023-02-14T08:45:16;1.00;86.70
70366;DHT22;57787;48.216;12.396;2023-02-14T08:47:45;1.00;86.50
70366;DHT22;57787;48.216;12.396;2023-02-14T08:50:14;1.00;86.50
70366;DHT22;57787;48.216;12.396;2023-02-14T08:52:42;1.10;86.80
70366;DHT22;57787;48.216;12.396;2023-02-14T08:55:11;1.10;86.40
70366;DHT22;57787;48.216;12.396;2023-02-14T08:57:39;1.10;86.50
70366;DHT22;57787;48.216;12.396;2023-02-14T09:00:07;1.20;86.70
70366;DHT22;57787;48.216;12.396;2023-02-14T09:02:36;1.20;86.80
70366;DHT22;57787;48.216;12.396;2023-02-14T09:05:03;1.30;86.90
70366;DHT22;57787;48.216;12.396;2023-02-14T09:07:35;1.30;85.70
70366;DHT22;57787;48.216;12.396;2023-02-14T09:10:02;1.30;86.10
70366;DHT22;57787;48.216;12.396;2023-02-14T09:12:30;1.30;86.10
70366;DHT22;57787;48.216;12.396;2023-02-14T09:14:58;1.40;86.20
70366;DHT22;57787;48.216;12.396;2023-02-14T09:17:25;1.40;86.10
70366;DHT22;57787;48.216;12.396;2023-02-14T09:19:53;1.50;86.30
70366;DHT22;57787;48.216;12.396;2023-02-14T09:22:20;1.60;86.40
70366;DHT22;57787;48.216;12.396;2023-02-14T09:24:48;1.60;85.90
70366;DHT22;57787;48.216;12.396;2023-02-14T09:27:15;1.70;85.60
70366;DHT22;57787;48.216;12.396;2023-02-14T09:29:43;1.70;85.00
70366;DHT22;57787;48.216;12.396;2023-02-14T09:32:12;1.70;84.00
70366;DHT22;57787;48.216;12.396;2023-02-14T09:34:39;1.80;84.80
70366;DHT22;57787;48.216;12.396;2023-02-14T09:37:11;1.80;85.20
70366;DHT22;57787;48.216;12.396;2023-02-14T09:39:39;1.90;85.30
70366;DHT22;57787;48.216;12.396;2023-02-14T09:42:32;2.00;85.20
70366;DHT22;57787;48.216;12.396;2023-02-14T09:45:10;2.00;84.00
70366;DHT22;57787;48.216;12.396;2023-02-14T09:50:33;2.10;83.10
70366;DHT22;57787;48.216;12.396;2023-02-14T09:53:12;2.00;83.60
70366;DHT22;57787;48.216;12.396;2023-02-14T09:55:46;2.00;81.90
70366;DHT22;57787;48.216;12.396;2023-02-14T09:58:21;1.90;82.10
70366;DHT22;57787;48.216;12.396;2023-02-14T10:11:44;2.30;83.70
70366;DHT22;57787;48.216;12.396;2023-02-14T10:14:20;2.50;83.20
70366;DHT22;57787;48.216;12.396;2023-02-14T10:16:53;2.60;82.80
70366;DHT22;57787;48.216;12.396;2023-02-14T10:19:24;2.80;82.80
70366;DHT22;57787;48.216;12.396;2023-02-14T10:21:54;2.90;82.30
70366;DHT22;57787;48.216;12.396;2023-02-14T10:29:58;3.10;81.30
70366;DHT22;57787;48.216;12.396;2023-02-14T10:33:12;3.20;80.30
70366;DHT22;57787;48.216;12.396;2023-02-14T10:35:22;3.20;81.20
70366;DHT22;57787;48.216;12.396;2023-02-14T10:41:17;3.10;80.60
70366;DHT22;57787;48.216;12.396;2023-02-14T10:45:57;3.10;80.00
70366;DHT22;57787;48.216;12.396;2023-02-14T10:48:44;3.00;80.30
70366;DHT22;57787;48.216;12.396;2023-02-14T10:54:08;3.20;80.80
70366;DHT22;57787;48.216;12.396;2023-02-14T10:56:33;3.20;79.60
70366;DHT22;57787;48.216;12.396;2023-02-14T10:59:14;3.20;80.30
70366;DHT22;57787;48.216;12.396;2023-02-14T11:01:43;3.20;79.20
70366;DHT22;57787;48.216;12.396;2023-02-14T11:04:11;3.20;80.10
70366;DHT22;57787;48.216;12.396;2023-02-14T11:06:40;3.20;79.50
70366;DHT22;57787;48.216;12.396;2023-02-14T11:09:10;3.10;80.70
70366;DHT22;57787;48.216;12.396;2023-02-14T11:14:26;3.20;79.90
70366;DHT22;57787;48.216;12.396;2023-02-14T11:16:55;3.10;80.30
70366;DHT22;57787;48.216;12.396;2023-02-14T11:19:24;3.20;81.40
70366;DHT22;57787;48.216;12.396;2023-02-14T11:21:53;3.30;80.90
70366;DHT22;57787;48.216;12.396;2023-02-14T11:24:25;3.20;80.20
70366;DHT22;57787;48.216;12.396;2023-02-14T11:26:54;3.20;79.40
70366;DHT22;57787;48.216;12.396;2023-02-14T11:29:31;3.10;80.10
70366;DHT22;57787;48.216;12.396;2023-02-14T11:32:07;3.10;79.90
70366;DHT22;57787;48.216;12.396;2023-02-14T11:34:36;3.10;79.90
70366;DHT22;57787;48.216;12.396;2023-02-14T11:37:18;3.20;80.10
70366;DHT22;57787;48.216;12.396;2023-02-14T11:39:52;3.10;80.10
70366;DHT22;57787;48.216;12.396;2023-02-14T11:42:59;3.10;80.00
70366;DHT22;57787;48.216;12.396;2023-02-14T11:45:38;3.10;80.40
70366;DHT22;57787;48.216;12.396;2023-02-14T11:48:08;3.20;81.00
70366;DHT22;57787;48.216;12.396;2023-02-14T11:50:42;3.20;80.20
70366;DHT22;57787;48.216;12.396;2023-02-14T11:53:12;3.30;80.70
70366;DHT22;57787;48.216;12.396;2023-02-14T11:55:49;3.30;80.80
70366;DHT22;57787;48.216;12.396;2023-02-14T11:58:29;3.40;80.40
70366;DHT22;57787;48.216;12.396;2023-02-14T12:00:58;3.30;80.10
70366;DHT22;57787;48.216;12.396;2023-02-14T12:03:28;3.30;79.60
70366;DHT22;57787;48.216;12.396;2023-02-14T12:06:00;3.30;79.90
70366;DHT22;57787;48.216;12.396;2023-02-14T12:08:29;3.30;81.30
70366;DHT22;57787;48.216;12.396;2023-02-14T12:11:03;3.40;80.60
70366;DHT22;57787;48.216;12.396;2023-02-14T12:13:31;3.30;80.50
70366;DHT22;57787;48.216;12.396;2023-02-14T12:15:59;3.40;80.90
70366;DHT22;57787;48.216;12.396;2023-02-14T12:18:40;3.50;81.50
70366;DHT22;57787;48.216;12.396;2023-02-14T12:21:11;3.50;80.90
70366;DHT22;57787;48.216;12.396;2023-02-14T12:23:40;3.50;81.00
70366;DHT22;57787;48.216;12.396;2023-02-14T12:26:12;3.60;81.40
70366;DHT22;57787;48.216;12.396;2023-02-14T12:28:44;3.60;80.90
70366;DHT22;57787;48.216;12.396;2023-02-14T12:31:14;3.50;81.30
70366;DHT22;57787;48.216;12.396;2023-02-14T12:33:42;3.40;81.70
70366;DHT22;57787;48.216;12.396;2023-02-14T12:38:51;3.60;82.00
70366;DHT22;57787;48.216;12.396;2023-02-14T12:41:29;3.60;81.70
70366;DHT22;57787;48.216;12.396;2023-02-14T12:44:51;3.70;81.50
70366;DHT22;57787;48.216;12.396;2023-02-14T12:52:07;3.60;81.20
70366;DHT22;57787;48.216;12.396;2023-02-14T12:54:42;3.60;82.40
70366;DHT22;57787;48.216;12.396;2023-02-14T13:21:02;3.70;81.30
70366;DHT22;57787;48.216;12.396;2023-02-14T13:26:03;3.70;81.30
70366;DHT22;57787;48.216;12.396;2023-02-14T13:28:32;3.80;80.90
70366;DHT22;57787;48.216;12.396;2023-02-14T13:31:02;3.80;80.90
70366;DHT22;57787;48.216;12.396;2023-02-14T13:33:32;3.80;80.10
70366;DHT22;57787;48.216;12.396;2023-02-14T13:36:07;3.80;80.60
70366;DHT22;57787;48.216;12.396;2023-02-14T13:38:42;3.80;79.80
70366;DHT22;57787;48.216;12.396;2023-02-14T13:41:10;3.80;80.70
70366;DHT22;57787;48.216;12.396;2023-02-14T13:46:16;3.90;80.20
70366;DHT22;57787;48.216;12.396;2023-02-14T13:48:55;3.80;80.00
70366;DHT22;57787;48.216;12.396;2023-02-14T13:51:42;3.80;79.90
70366;DHT22;57787;48.216;12.396;2023-02-14T13:56:58;3.60;80.40
70366;DHT22;57787;48.216;12.396;2023-02-14T13:59:31;3.60;80.90
70366;DHT22;57787;48.216;12.396;2023-02-14T14:02:28;3.60;80.90
70366;DHT22;57787;48.216;12.396;2023-02-14T14:04:47;3.60;80.60
70366;DHT22;57787;48.216;12.396;2023-02-14T14:07:18;3.60;80.50
70366;DHT22;57787;48.216;12.396;2023-02-14T14:17:35;3.60;81.10
70366;DHT22;57787;48.216;12.396;2023-02-14T14:22:46;3.70;81.10
70366;DHT22;57787;48.216;12.396;2023-02-14T14:25:28;3.70;80.60
70366;DHT22;57787;48.216;12.396;2023-02-14T14:27:58;3.60;81.10
70366;DHT22;57787;48.216;12.396;2023-02-14T14:30:30;3.60;80.60
70366;DHT22;57787;48.216;12.396;2023-02-14T14:36:03;3.60;81.40
70366;DHT22;57787;48.216;12.396;2023-02-14T14:38:44;3.50;81.00
70366;DHT22;57787;48.216;12.396;2023-02-14T14:41:12;3.50;81.70
70366;DHT22;57787;48.216;12.396;2023-02-14T14:43:40;3.40;81.10
70366;DHT22;57787;48.216;12.396;2023-02-14T14:46:09;3.40;81.40
70366;DHT22;57787;48.216;12.396;2023-02-14T14:48:45;3.40;81.50
70366;DHT22;57787;48.216;12.396;2023-02-14T14:51:35;3.30;81.10
70366;DHT22;57787;48.216;12.396;2023-02-14T14:54:05;3.30;81.30
70366;DHT22;57787;48.216;12.396;2023-02-14T14:56:34;3.30;81.40
70366;DHT22;57787;48.216;12.396;2023-02-14T14:59:17;3.20;81.40
70366;DHT22;57787;48.216;12.396;2023-02-14T15:01:45;3.10;81.80
70366;DHT22;57787;48.216;12.396;2023-02-14T15:04:17;3.00;81.90
70366;DHT22;57787;48.216;12.396;2023-02-14T15:06:45;3.00;82.20
70366;DHT22;57787;48.216;12.396;2023-02-14T15:09:21;3.00;82.40
70366;DHT22;57787;48.216;12.396;2023-02-14T15:11:50;3.00;82.70
70366;DHT22;57787;48.216;12.396;2023-02-14T15:14:39;3.00;82.40
70366;DHT22;57787;48.216;12.396;2023-02-14T15:17:26;2.90;82.70
70366;DHT22;57787;48.216;12.396;2023-02-14T15:20:06;2.80;82.70
70366;DHT22;57787;48.216;12.396;2023-02-14T15:22:44;2.70;82.90
70366;DHT22;57787;48.216;12.396;2023-02-14T15:25:26;2.70;83.00
70366;DHT22;57787;48.216;12.396;2023-02-14T15:27:55;2.60;83.30
70366;DHT22;57787;48.216;12.396;2023-02-14T15:30:25;2.60;83.20
70366;DHT22;57787;48.216;12.396;2023-02-14T15:32:55;2.60;83.40
70366;DHT22;57787;48.216;12.396;2023-02-14T15:35:24;2.60;83.50
70366;DHT22;57787;48.216;12.396;2023-02-14T15:37:53;2.50;83.50
70366;DHT22;57787;48.216;12.396;2023-02-14T15:40:22;2.50;83.60
70366;DHT22;57787;48.216;12.396;2023-02-14T15:42:51;2.40;83.90
70366;DHT22;57787;48.216;12.396;2023-02-14T15:47:53;2.30;83.90
70366;DHT22;57787;48.216;12.396;2023-02-14T15:50:22;2.30;84.40
70366;DHT22;57787;48.216;12.396;2023-02-14T15:52:55;2.30;84.30
70366;DHT22;57787;48.216;12.396;2023-02-14T15:55:24;2.20;84.60
70366;DHT22;57787;48.216;12.396;2023-02-14T15:57:57;2.20;84.70
70366;DHT22;57787;48.216;12.396;2023-02-14T16:00:27;2.10;84.90
70366;DHT22;57787;48.216;12.396;2023-02-14T16:02:56;2.10;85.30
70366;DHT22;57787;48.216;12.396;2023-02-14T16:05:25;2.00;85.40
70366;DHT22;57787;48.216;12.396;2023-02-14T16:12:57;2.00;85.80
70366;DHT22;57787;48.216;12.396;2023-02-14T16:15:31;1.90;86.00
70366;DHT22;57787;48.216;12.396;2023-02-14T16:18:00;1.90;86.10
70366;DHT22;57787;48.216;12.396;2023-02-14T16:23:15;1.90;86.60
70366;DHT22;57787;48.216;12.396;2023-02-14T16:25:42;1.90;86.40
70366;DHT22;57787;48.216;12.396;2023-02-14T16:28:11;1.80;86.50
70366;DHT22;57787;48.216;12.396;2023-02-14T16:30:40;1.70;86.90
70366;DHT22;57787;48.216;12.396;2023-02-14T16:33:15;1.60;87.20
70366;DHT22;57787;48.216;12.396;2023-02-14T16:35:44;1.60;87.40
70366;DHT22;57787;48.216;12.396;2023-02-14T16:38:13;1.60;87.40
70366;DHT22;57787;48.216;12.396;2023-02-14T16:40:52;1.60;87.60
70366;DHT22;57787;48.216;12.396;2023-02-14T16:43:21;1.50;87.50
70366;DHT22;57787;48.216;12.396;2023-02-14T16:45:48;1.50;87.70
70366;DHT22;57787;48.216;12.396;2023-02-14T16:48:15;1.50;88.00
70366;DHT22;57787;48.216;12.396;2023-02-14T16:50:43;1.50;88.10
70366;DHT22;57787;48.216;12.396;2023-02-14T16:53:13;1.50;88.10
70366;DHT22;57787;48.216;12.396;2023-02-14T16:55:43;1.50;88.20
70366;DHT22;57787;48.216;12.396;2023-02-14T16:58:10;1.50;88.30
70366;DHT22;57787;48.216;12.396;2023-02-14T17:00:39;1.50;88.00
70366;DHT22;57787;48.216;12.396;2023-02-14T17:03:08;1.40;88.00
70366;DHT22;57787;48.216;12.396;2023-02-14T17:05:37;1.40;88.20
70366;DHT22;57787;48.216;12.396;2023-02-14T17:08:06;1.30;88.30
70366;DHT22;57787;48.216;12.396;2023-02-14T17:10:35;1.30;88.10
70366;DHT22;57787;48.216;12.396;2023-02-14T17:13:02;1.30;88.40
70366;DHT22;57787;48.216;12.396;2023-02-14T17:15:31;1.20;88.70
70366;DHT22;57787;48.216;12.396;2023-02-14T17:18:03;1.20;88.90
70366;DHT22;57787;48.216;12.396;2023-02-14T17:20:34;1.20;88.80
70366;DHT22;57787;48.216;12.396;2023-02-14T17:23:03;1.20;88.80
70366;DHT22;57787;48.216;12.396;2023-02-14T17:25:30;1.20;88.70
70366;DHT22;57787;48.216;12.396;2023-02-14T17:27:58;1.30;88.70
70366;DHT22;57787;48.216;12.396;2023-02-14T17:30:27;1.30;88.80
70366;DHT22;57787;48.216;12.396;2023-02-14T17:32:55;1.20;88.90
70366;DHT22;57787;48.216;12.396;2023-02-14T17:35:24;1.20;88.80
70366;DHT22;57787;48.216;12.396;2023-02-14T17:37:54;1.20;88.70
70366;DHT22;57787;48.216;12.396;2023-02-14T17:40:22;1.20;88.80
70366;DHT22;57787;48.216;12.396;2023-02-14T17:42:49;1.20;88.90
70366;DHT22;57787;48.216;12.396;2023-02-14T17:45:16;1.20;89.00
70366;DHT22;57787;48.216;12.396;2023-02-14T17:47:44;1.20;89.00
70366;DHT22;57787;48.216;12.396;2023-02-14T17:50:11;1.20;89.20
70366;DHT22;57787;48.216;12.396;2023-02-14T17:52:40;1.20;89.00
70366;DHT22;57787;48.216;12.396;2023-02-14T17:55:08;1.20;89.10
70366;DHT22;57787;48.216;12.396;2023-02-14T17:57:36;1.20;89.10
70366;DHT22;57787;48.216;12.396;2023-02-14T18:00:05;1.30;89.10
70366;DHT22;57787;48.216;12.396;2023-02-14T18:02:33;1.30;88.90
70366;DHT22;57787;48.216;12.396;2023-02-14T18:05:00;1.20;88.80